createdAt,value
2017-09-06T00:00:28.525Z,0
2017-09-06T00:01:37.416Z,0
2017-09-06T00:02:46.252Z,0
2017-09-06T00:03:55.086Z,0
2017-09-06T00:05:03.922Z,0
2017-09-06T00:06:12.749Z,0
2017-09-06T00:07:21.577Z,0
2017-09-06T00:08:30.409Z,0
2017-09-06T00:09:39.246Z,0
2017-09-06T00:10:48.077Z,0
2017-09-06T00:11:56.910Z,0
2017-09-06T00:13:05.740Z,0
2017-09-06T00:14:14.571Z,0
2017-09-06T00:15:23.402Z,0
2017-09-06T00:16:32.236Z,0
2017-09-06T00:17:41.069Z,0
2017-09-06T00:18:49.899Z,0
2017-09-06T00:19:58.729Z,0
2017-09-06T00:21:07.555Z,0
2017-09-06T00:22:16.391Z,0
2017-09-06T00:23:25.225Z,0
2017-09-06T00:24:34.057Z,0
2017-09-06T00:25:42.889Z,0
2017-09-06T00:26:51.727Z,0
2017-09-06T00:28:00.550Z,0
2017-09-06T00:29:09.384Z,0
2017-09-06T00:30:18.223Z,0
2017-09-06T00:31:27.047Z,0
2017-09-06T00:32:35.877Z,0
2017-09-06T00:33:44.712Z,0
2017-09-06T00:34:53.545Z,0
2017-09-06T00:36:02.379Z,0
2017-09-06T00:37:11.206Z,0
2017-09-06T00:38:20.037Z,0
2017-09-06T00:39:29.189Z,0
2017-09-06T00:40:38.023Z,0
2017-09-06T00:41:46.850Z,0
2017-09-06T00:42:55.688Z,0
2017-09-06T00:44:04.520Z,0
2017-09-06T00:45:13.347Z,0
2017-09-06T00:46:22.178Z,0
2017-09-06T00:47:31.016Z,0
2017-09-06T00:48:39.842Z,0
2017-09-06T00:49:48.675Z,0
2017-09-06T00:50:57.504Z,0
2017-09-06T00:52:06.338Z,0
2017-09-06T00:53:15.168Z,0
2017-09-06T00:54:24.001Z,0
2017-09-06T00:55:32.828Z,0
2017-09-06T00:56:41.665Z,0
2017-09-06T00:57:50.494Z,0
2017-09-06T00:58:59.327Z,0
2017-09-06T01:00:08.158Z,0
2017-09-06T01:01:16.988Z,0
2017-09-06T01:02:25.822Z,0
2017-09-06T01:03:34.649Z,0
2017-09-06T01:04:43.484Z,0
2017-09-06T01:05:52.314Z,0
2017-09-06T01:07:01.142Z,0
2017-09-06T01:08:09.977Z,0
2017-09-06T01:09:18.812Z,0
2017-09-06T01:10:27.639Z,0
2017-09-06T01:11:36.470Z,0
2017-09-06T01:12:45.301Z,0
2017-09-06T01:13:54.130Z,0
2017-09-06T01:15:02.958Z,0
2017-09-06T01:16:11.790Z,0
2017-09-06T01:17:20.620Z,0
2017-09-06T01:18:29.453Z,0
2017-09-06T01:19:38.284Z,0
2017-09-06T01:20:47.121Z,0
2017-09-06T01:21:55.945Z,0
2017-09-06T01:23:04.777Z,0
2017-09-06T01:24:13.613Z,0
2017-09-06T01:25:22.448Z,0
2017-09-06T01:26:31.276Z,0
2017-09-06T01:27:40.108Z,0
2017-09-06T01:28:48.939Z,0
2017-09-06T01:29:57.767Z,0
2017-09-06T01:31:06.600Z,0
2017-09-06T01:32:15.429Z,0
2017-09-06T01:33:24.264Z,0
2017-09-06T01:34:33.094Z,0
2017-09-06T01:35:41.922Z,0
2017-09-06T01:36:50.754Z,0
2017-09-06T01:37:59.583Z,0
2017-09-06T01:39:08.417Z,0
2017-09-06T01:40:17.242Z,0
2017-09-06T01:41:26.079Z,0
2017-09-06T01:42:34.906Z,0
2017-09-06T01:43:43.734Z,0
2017-09-06T01:44:52.568Z,0
2017-09-06T01:46:01.399Z,0
2017-09-06T01:47:10.232Z,0
2017-09-06T01:48:19.067Z,0
2017-09-06T01:49:27.893Z,0
2017-09-06T01:50:36.724Z,0
2017-09-06T01:51:45.880Z,0
2017-09-06T01:52:54.716Z,0
2017-09-06T01:54:03.542Z,0
2017-09-06T01:55:12.376Z,0
2017-09-06T01:56:21.201Z,0
2017-09-06T01:57:30.026Z,0
2017-09-06T01:58:38.862Z,0
2017-09-06T01:59:47.695Z,0
2017-09-06T02:00:56.524Z,0
2017-09-06T02:02:05.358Z,0
2017-09-06T02:03:14.186Z,0
2017-09-06T02:04:23.016Z,0
2017-09-06T02:05:31.844Z,0
2017-09-06T02:06:40.677Z,0
2017-09-06T02:07:49.501Z,0
2017-09-06T02:08:58.337Z,0
2017-09-06T02:10:07.163Z,0
2017-09-06T02:11:15.998Z,0
2017-09-06T02:12:24.831Z,0
2017-09-06T02:13:33.661Z,0
2017-09-06T02:14:42.487Z,0
2017-09-06T02:15:51.317Z,0
2017-09-06T02:17:00.147Z,0
2017-09-06T02:18:08.977Z,0
2017-09-06T02:19:17.810Z,0
2017-09-06T02:20:26.645Z,0
2017-09-06T02:21:35.467Z,0
2017-09-06T02:22:44.294Z,0
2017-09-06T02:23:53.125Z,0
2017-09-06T02:25:01.955Z,0
2017-09-06T02:26:10.792Z,0
2017-09-06T02:27:19.622Z,0
2017-09-06T02:28:28.448Z,0
2017-09-06T02:29:37.282Z,0
2017-09-06T02:30:46.116Z,0
2017-09-06T02:31:54.942Z,0
2017-09-06T02:33:03.773Z,0
2017-09-06T02:34:12.608Z,0
2017-09-06T02:35:21.437Z,0
2017-09-06T02:36:30.271Z,0
2017-09-06T02:37:39.105Z,0
2017-09-06T02:38:47.937Z,0
2017-09-06T02:39:56.781Z,0
2017-09-06T02:41:05.931Z,0
2017-09-06T02:42:14.761Z,0
2017-09-06T02:43:23.591Z,0
2017-09-06T02:44:32.419Z,0
2017-09-06T02:45:41.246Z,0
2017-09-06T02:46:50.079Z,0
2017-09-06T02:47:58.910Z,0
2017-09-06T02:49:07.741Z,0
2017-09-06T02:50:16.574Z,0
2017-09-06T02:51:25.404Z,0
2017-09-06T02:52:34.232Z,0
2017-09-06T02:53:43.060Z,0
2017-09-06T02:54:51.894Z,0
2017-09-06T02:56:00.725Z,0
2017-09-06T02:57:09.549Z,0
2017-09-06T02:58:18.383Z,0
2017-09-06T02:59:27.219Z,0
2017-09-06T03:00:36.043Z,0
2017-09-06T03:01:44.876Z,0
2017-09-06T03:02:53.705Z,0
2017-09-06T03:04:02.866Z,0
2017-09-06T03:05:11.695Z,0
2017-09-06T03:06:21.119Z,0
2017-09-06T03:07:29.967Z,0
2017-09-06T03:08:38.819Z,0
2017-09-06T03:09:47.670Z,0
2017-09-06T03:10:56.519Z,0
2017-09-06T03:12:05.371Z,0
2017-09-06T03:13:14.227Z,0
2017-09-06T03:14:23.077Z,0
2017-09-06T03:15:31.925Z,0
2017-09-06T03:16:41.144Z,0
2017-09-06T03:17:49.997Z,0
2017-09-06T03:18:58.848Z,0
2017-09-06T03:20:07.690Z,0
2017-09-06T03:21:16.542Z,0
2017-09-06T03:22:25.391Z,0
2017-09-06T03:23:34.240Z,0
2017-09-06T03:24:43.092Z,0
2017-09-06T03:25:51.941Z,0
2017-09-06T03:27:00.790Z,0
2017-09-06T03:28:09.641Z,0
2017-09-06T03:29:18.491Z,0
2017-09-06T03:30:27.341Z,0
2017-09-06T03:31:36.192Z,0
2017-09-06T03:32:45.041Z,0
2017-09-06T03:33:53.888Z,0
2017-09-06T03:35:02.739Z,0
2017-09-06T03:36:11.590Z,0
2017-09-06T03:37:20.438Z,0
2017-09-06T03:38:29.288Z,0
2017-09-06T03:39:38.139Z,0
2017-09-06T03:40:46.986Z,0
2017-09-06T03:41:55.837Z,0
2017-09-06T03:43:04.690Z,0
2017-09-06T03:44:13.538Z,0
2017-09-06T03:45:22.391Z,0
2017-09-06T03:46:31.238Z,0
2017-09-06T03:47:40.087Z,0
2017-09-06T03:48:48.940Z,0
2017-09-06T03:49:57.789Z,0
2017-09-06T03:51:06.643Z,0
2017-09-06T03:52:15.489Z,0
2017-09-06T03:53:24.342Z,0
2017-09-06T03:54:33.188Z,0
2017-09-06T03:55:42.038Z,0
2017-09-06T03:56:50.888Z,0
2017-09-06T03:57:59.734Z,0
2017-09-06T03:59:08.587Z,0
2017-09-06T04:00:17.434Z,0
2017-09-06T04:01:26.284Z,0
2017-09-06T04:02:35.137Z,0
2017-09-06T04:03:43.988Z,0
2017-09-06T04:04:52.837Z,0
2017-09-06T04:06:01.684Z,0
2017-09-06T04:07:10.535Z,0
2017-09-06T04:08:19.383Z,0
2017-09-06T04:09:28.234Z,0
2017-09-06T04:10:37.084Z,0
2017-09-06T04:11:45.933Z,0
2017-09-06T04:12:54.783Z,0
2017-09-06T04:14:03.631Z,0
2017-09-06T04:15:12.479Z,0
2017-09-06T04:16:21.331Z,0
2017-09-06T04:17:30.183Z,0
2017-09-06T04:18:39.033Z,0
2017-09-06T04:19:47.879Z,0
2017-09-06T04:20:56.731Z,0
2017-09-06T04:22:05.580Z,0
2017-09-06T04:23:14.431Z,0
2017-09-06T04:24:23.282Z,0
2017-09-06T04:25:32.129Z,0
2017-09-06T04:26:40.980Z,0
2017-09-06T04:27:49.834Z,0
2017-09-06T04:28:58.681Z,0
2017-09-06T04:30:07.533Z,0
2017-09-06T04:31:16.386Z,0
2017-09-06T04:32:25.237Z,0
2017-09-06T04:33:34.089Z,0
2017-09-06T04:34:42.941Z,0
2017-09-06T04:35:51.789Z,0
2017-09-06T04:37:00.641Z,0
2017-09-06T04:38:09.492Z,0
2017-09-06T04:39:18.341Z,0
2017-09-06T04:40:27.189Z,0
2017-09-06T04:41:36.042Z,0
2017-09-06T04:42:44.890Z,0
2017-09-06T04:43:53.739Z,0
2017-09-06T04:45:02.589Z,0
2017-09-06T04:46:11.435Z,0
2017-09-06T04:47:20.284Z,0
2017-09-06T04:48:29.136Z,0
2017-09-06T04:49:38.313Z,0
2017-09-06T04:50:47.162Z,0
2017-09-06T04:51:56.013Z,0
2017-09-06T04:53:04.861Z,0
2017-09-06T04:54:13.714Z,0
2017-09-06T04:55:22.562Z,0
2017-09-06T04:56:31.414Z,0
2017-09-06T04:57:40.263Z,0
2017-09-06T04:58:49.114Z,0
2017-09-06T04:59:57.964Z,0
2017-09-06T05:01:06.810Z,0
2017-09-06T05:02:15.659Z,0
2017-09-06T05:03:24.514Z,0
2017-09-06T05:04:33.363Z,0
2017-09-06T05:05:42.222Z,0
2017-09-06T05:06:51.111Z,0
2017-09-06T05:07:59.961Z,5
2017-09-06T05:09:08.815Z,5
2017-09-06T05:10:17.663Z,5
2017-09-06T05:11:26.553Z,5
2017-09-06T05:12:35.410Z,5
2017-09-06T05:13:44.258Z,5
2017-09-06T05:14:53.109Z,5
2017-09-06T05:16:01.959Z,5
2017-09-06T05:17:10.811Z,5
2017-09-06T05:18:19.660Z,5
2017-09-06T05:19:28.509Z,5
2017-09-06T05:20:37.362Z,5
2017-09-06T05:21:46.213Z,5
2017-09-06T05:22:55.062Z,5
2017-09-06T05:24:03.914Z,5
2017-09-06T05:25:12.763Z,5
2017-09-06T05:26:21.610Z,5
2017-09-06T05:27:30.463Z,5
2017-09-06T05:28:39.313Z,5
2017-09-06T05:29:48.161Z,5
2017-09-06T05:30:57.012Z,5
2017-09-06T05:32:05.861Z,5
2017-09-06T05:33:15.042Z,5
2017-09-06T05:34:23.944Z,5
2017-09-06T05:35:33.153Z,5
2017-09-06T05:36:42.198Z,5
2017-09-06T05:37:51.127Z,5
2017-09-06T05:39:00.064Z,5
2017-09-06T05:40:08.962Z,5
2017-09-06T05:41:17.911Z,5
2017-09-06T05:42:26.801Z,5
2017-09-06T05:43:35.736Z,10
2017-09-06T05:44:44.595Z,10
2017-09-06T05:45:53.515Z,10
2017-09-06T05:47:02.685Z,10
2017-09-06T05:48:11.593Z,10
2017-09-06T05:49:20.442Z,10
2017-09-06T05:50:29.294Z,10
2017-09-06T05:51:38.149Z,10
2017-09-06T05:52:47.352Z,10
2017-09-06T05:53:56.201Z,10
2017-09-06T05:55:05.060Z,10
2017-09-06T05:56:13.913Z,10
2017-09-06T05:57:22.762Z,10
2017-09-06T05:58:31.614Z,10
2017-09-06T05:59:40.463Z,10
2017-09-06T06:00:49.313Z,10
2017-09-06T06:01:58.217Z,10
2017-09-06T06:03:07.217Z,10
2017-09-06T06:04:16.155Z,5
2017-09-06T06:05:25.176Z,5
2017-09-06T06:06:34.365Z,5
2017-09-06T06:07:43.607Z,5
2017-09-06T06:08:52.461Z,5
2017-09-06T06:10:01.352Z,5
2017-09-06T06:11:10.210Z,5
2017-09-06T06:12:19.165Z,5
2017-09-06T06:13:28.706Z,5
2017-09-06T06:14:37.557Z,5
2017-09-06T06:15:46.773Z,5
2017-09-06T06:16:55.632Z,5
2017-09-06T06:18:04.668Z,5
2017-09-06T06:19:13.681Z,5
2017-09-06T06:20:22.572Z,5
2017-09-06T06:21:31.780Z,5
2017-09-06T06:22:40.670Z,10
2017-09-06T06:23:49.598Z,10
2017-09-06T06:24:58.593Z,10
2017-09-06T06:26:07.778Z,10
2017-09-06T06:27:16.707Z,10
2017-09-06T06:28:25.885Z,10
2017-09-06T06:29:35.197Z,10
2017-09-06T06:30:44.420Z,15
2017-09-06T06:31:53.285Z,15
2017-09-06T06:33:02.180Z,15
2017-09-06T06:34:11.290Z,15
2017-09-06T06:35:20.175Z,15
2017-09-06T06:36:29.181Z,15
2017-09-06T06:37:38.032Z,15
2017-09-06T06:38:46.963Z,20
2017-09-06T06:39:55.813Z,20
2017-09-06T06:41:04.668Z,20
2017-09-06T06:42:13.518Z,20
2017-09-06T06:43:22.371Z,20
2017-09-06T06:44:31.224Z,25
2017-09-06T06:45:40.070Z,25
2017-09-06T06:46:48.920Z,25
2017-09-06T06:47:57.775Z,25
2017-09-06T06:49:06.622Z,25
2017-09-06T06:50:15.630Z,25
2017-09-06T06:51:24.481Z,25
2017-09-06T06:52:33.456Z,20
2017-09-06T06:53:42.420Z,20
2017-09-06T06:54:51.318Z,15
2017-09-06T06:56:01.014Z,15
2017-09-06T06:57:10.444Z,15
2017-09-06T06:58:19.299Z,15
2017-09-06T06:59:28.304Z,20
2017-09-06T07:00:37.177Z,20
2017-09-06T07:01:46.148Z,15
2017-09-06T07:02:54.996Z,15
2017-09-06T07:04:04.037Z,15
2017-09-06T07:05:12.889Z,20
2017-09-06T07:06:21.835Z,20
2017-09-06T07:07:30.764Z,20
2017-09-06T07:08:39.931Z,20
2017-09-06T07:09:48.854Z,20
2017-09-06T07:10:58.058Z,20
2017-09-06T07:12:06.905Z,20
2017-09-06T07:13:15.912Z,20
2017-09-06T07:14:24.765Z,20
2017-09-06T07:15:33.764Z,20
2017-09-06T07:16:43.053Z,25
2017-09-06T07:17:52.249Z,30
2017-09-06T07:19:01.187Z,30
2017-09-06T07:20:10.409Z,30
2017-09-06T07:21:19.337Z,25
2017-09-06T07:22:28.491Z,25
2017-09-06T07:23:37.342Z,25
2017-09-06T07:24:46.193Z,20
2017-09-06T07:25:55.043Z,20
2017-09-06T07:27:03.899Z,25
2017-09-06T07:28:12.753Z,25
2017-09-06T07:29:21.601Z,35
2017-09-06T07:30:30.482Z,35
2017-09-06T07:31:39.339Z,35
2017-09-06T07:32:48.872Z,35
2017-09-06T07:33:58.567Z,40
2017-09-06T07:35:07.932Z,40
2017-09-06T07:36:16.779Z,40
2017-09-06T07:37:26.034Z,45
2017-09-06T07:38:35.215Z,45
2017-09-06T07:39:44.065Z,40
2017-09-06T07:40:53.240Z,35
2017-09-06T07:42:02.091Z,30
2017-09-06T07:43:10.942Z,25
2017-09-06T07:44:19.794Z,25
2017-09-06T07:45:28.646Z,20
2017-09-06T07:46:37.498Z,25
2017-09-06T07:47:46.349Z,25
2017-09-06T07:48:55.203Z,25
2017-09-06T07:50:04.376Z,25
2017-09-06T07:51:13.226Z,25
2017-09-06T07:52:22.079Z,25
2017-09-06T07:53:30.931Z,20
2017-09-06T07:54:39.780Z,20
2017-09-06T07:55:48.634Z,20
2017-09-06T07:56:57.487Z,25
2017-09-06T07:58:06.338Z,25
2017-09-06T07:59:15.189Z,20
2017-09-06T08:00:24.042Z,30
2017-09-06T08:01:32.893Z,35
2017-09-06T08:02:41.748Z,45
2017-09-06T08:03:50.922Z,50
2017-09-06T08:05:00.068Z,55
2017-09-06T08:06:09.582Z,50
2017-09-06T08:07:18.698Z,50
2017-09-06T08:08:27.801Z,50
2017-09-06T08:09:36.784Z,55
2017-09-06T08:10:45.632Z,55
2017-09-06T08:11:54.485Z,55
2017-09-06T08:13:03.335Z,55
2017-09-06T08:14:12.512Z,55
2017-09-06T08:15:21.361Z,55
2017-09-06T08:16:30.214Z,55
2017-09-06T08:17:39.063Z,55
2017-09-06T08:18:47.915Z,45
2017-09-06T08:19:56.771Z,50
2017-09-06T08:21:05.625Z,45
2017-09-06T08:22:14.475Z,35
2017-09-06T08:23:23.326Z,30
2017-09-06T08:24:32.179Z,25
2017-09-06T08:25:41.028Z,20
2017-09-06T08:26:49.882Z,20
2017-09-06T08:27:58.735Z,20
2017-09-06T08:29:07.585Z,20
2017-09-06T08:30:16.764Z,25
2017-09-06T08:31:25.615Z,25
2017-09-06T08:32:34.465Z,25
2017-09-06T08:33:43.317Z,30
2017-09-06T08:34:52.168Z,35
2017-09-06T08:36:01.017Z,35
2017-09-06T08:37:09.867Z,35
2017-09-06T08:38:18.723Z,40
2017-09-06T08:39:27.569Z,40
2017-09-06T08:40:36.424Z,50
2017-09-06T08:41:45.276Z,45
2017-09-06T08:42:54.127Z,50
2017-09-06T08:44:02.978Z,45
2017-09-06T08:45:11.832Z,50
2017-09-06T08:46:20.681Z,45
2017-09-06T08:47:29.532Z,55
2017-09-06T08:48:38.383Z,45
2017-09-06T08:49:47.231Z,40
2017-09-06T08:50:56.092Z,40
2017-09-06T08:52:04.933Z,35
2017-09-06T08:53:13.782Z,30
2017-09-06T08:54:22.633Z,25
2017-09-06T08:55:31.487Z,25
2017-09-06T08:56:40.337Z,25
2017-09-06T08:57:49.188Z,30
2017-09-06T08:58:58.042Z,30
2017-09-06T09:00:06.893Z,35
2017-09-06T09:01:15.743Z,35
2017-09-06T09:02:24.594Z,40
2017-09-06T09:03:33.442Z,45
2017-09-06T09:04:42.298Z,40
2017-09-06T09:05:51.147Z,35
2017-09-06T09:07:00.000Z,30
2017-09-06T09:08:08.853Z,25
2017-09-06T09:09:17.701Z,20
2017-09-06T09:10:26.552Z,10
2017-09-06T09:11:35.402Z,10
2017-09-06T09:12:44.254Z,10
2017-09-06T09:13:53.102Z,5
2017-09-06T09:15:01.955Z,5
2017-09-06T09:16:10.802Z,5
2017-09-06T09:17:19.653Z,15
2017-09-06T09:18:28.505Z,15
2017-09-06T09:19:37.353Z,15
2017-09-06T09:20:46.204Z,20
2017-09-06T09:21:55.056Z,25
2017-09-06T09:23:03.904Z,25
2017-09-06T09:24:12.757Z,25
2017-09-06T09:25:21.606Z,25
2017-09-06T09:26:30.460Z,20
2017-09-06T09:27:39.308Z,15
2017-09-06T09:28:48.159Z,20
2017-09-06T09:29:57.015Z,20
2017-09-06T09:31:05.865Z,15
2017-09-06T09:32:14.715Z,10
2017-09-06T09:33:23.564Z,10
2017-09-06T09:34:32.414Z,10
2017-09-06T09:35:41.263Z,10
2017-09-06T09:36:50.114Z,15
2017-09-06T09:37:58.961Z,20
2017-09-06T09:39:08.140Z,20
2017-09-06T09:40:16.990Z,30
2017-09-06T09:41:25.841Z,35
2017-09-06T09:42:34.690Z,30
2017-09-06T09:43:43.539Z,30
2017-09-06T09:44:52.389Z,30
2017-09-06T09:46:01.242Z,40
2017-09-06T09:47:10.091Z,50
2017-09-06T09:48:18.937Z,70
2017-09-06T09:49:27.786Z,80
2017-09-06T09:50:36.639Z,65
2017-09-06T09:51:45.489Z,55
2017-09-06T09:52:54.341Z,45
2017-09-06T09:54:03.192Z,40
2017-09-06T09:55:12.039Z,40
2017-09-06T09:56:20.891Z,35
2017-09-06T09:57:29.745Z,40
2017-09-06T09:58:38.594Z,45
2017-09-06T09:59:47.446Z,55
2017-09-06T10:00:56.297Z,60
2017-09-06T10:02:05.145Z,65
2017-09-06T10:03:13.996Z,75
2017-09-06T10:04:22.848Z,80
2017-09-06T10:05:31.697Z,80
2017-09-06T10:06:40.550Z,80
2017-09-06T10:07:49.404Z,85
2017-09-06T10:08:58.250Z,85
2017-09-06T10:10:07.102Z,80
2017-09-06T10:11:15.955Z,80
2017-09-06T10:12:24.805Z,80
2017-09-06T10:13:33.658Z,85
2017-09-06T10:14:42.535Z,85
2017-09-06T10:15:51.493Z,80
2017-09-06T10:17:00.346Z,80
2017-09-06T10:18:09.200Z,80
2017-09-06T10:19:18.608Z,60
2017-09-06T10:20:28.374Z,55
2017-09-06T10:21:37.265Z,75
2017-09-06T10:22:46.115Z,70
2017-09-06T10:23:54.968Z,65
2017-09-06T10:25:03.819Z,65
2017-09-06T10:26:12.684Z,65
2017-09-06T10:27:21.532Z,65
2017-09-06T10:28:30.387Z,70
2017-09-06T10:29:39.240Z,70
2017-09-06T10:30:48.096Z,75
2017-09-06T10:31:56.959Z,75
2017-09-06T10:33:05.810Z,85
2017-09-06T10:34:14.658Z,85
2017-09-06T10:35:23.509Z,80
2017-09-06T10:36:32.362Z,80
2017-09-06T10:37:41.215Z,75
2017-09-06T10:38:50.070Z,65
2017-09-06T10:39:58.919Z,55
2017-09-06T10:41:07.769Z,45
2017-09-06T10:42:16.625Z,45
2017-09-06T10:43:25.474Z,55
2017-09-06T10:44:34.325Z,50
2017-09-06T10:45:43.177Z,45
2017-09-06T10:46:52.028Z,45
2017-09-06T10:48:00.876Z,40
2017-09-06T10:49:09.730Z,25
2017-09-06T10:50:18.622Z,20
2017-09-06T10:51:27.470Z,20
2017-09-06T10:52:36.674Z,30
2017-09-06T10:53:45.557Z,30
2017-09-06T10:54:54.445Z,20
2017-09-06T10:56:03.697Z,30
2017-09-06T10:57:12.641Z,35
2017-09-06T10:58:21.490Z,25
2017-09-06T10:59:30.342Z,20
2017-09-06T11:00:39.200Z,20
2017-09-06T11:01:48.043Z,25
2017-09-06T11:02:56.896Z,30
2017-09-06T11:04:05.747Z,35
2017-09-06T11:05:14.600Z,40
2017-09-06T11:06:23.450Z,35
2017-09-06T11:07:32.304Z,40
2017-09-06T11:08:41.158Z,40
2017-09-06T11:09:50.007Z,45
2017-09-06T11:10:58.861Z,50
2017-09-06T11:12:07.715Z,50
2017-09-06T11:13:16.566Z,45
2017-09-06T11:14:25.416Z,45
2017-09-06T11:15:34.268Z,45
2017-09-06T11:16:43.119Z,45
2017-09-06T11:17:51.976Z,45
2017-09-06T11:19:00.827Z,45
2017-09-06T11:20:09.999Z,40
2017-09-06T11:21:18.853Z,40
2017-09-06T11:22:27.709Z,45
2017-09-06T11:23:36.612Z,50
2017-09-06T11:24:45.535Z,50
2017-09-06T11:25:54.428Z,55
2017-09-06T11:27:03.365Z,50
2017-09-06T11:28:12.216Z,55
2017-09-06T11:29:21.087Z,60
2017-09-06T11:30:29.983Z,65
2017-09-06T11:31:38.837Z,70
2017-09-06T11:32:47.692Z,70
2017-09-06T11:33:56.541Z,70
2017-09-06T11:35:05.395Z,65
2017-09-06T11:36:14.251Z,65
2017-09-06T11:37:23.101Z,65
2017-09-06T11:38:31.999Z,65
2017-09-06T11:39:40.855Z,55
2017-09-06T11:40:49.793Z,60
2017-09-06T11:41:58.775Z,60
2017-09-06T11:43:07.688Z,60
2017-09-06T11:44:16.570Z,70
2017-09-06T11:45:25.421Z,70
2017-09-06T11:46:34.274Z,70
2017-09-06T11:47:43.457Z,80
2017-09-06T11:48:52.309Z,75
2017-09-06T11:50:01.485Z,75
2017-09-06T11:51:10.337Z,70
2017-09-06T11:52:19.184Z,65
2017-09-06T11:53:28.038Z,65
2017-09-06T11:54:36.889Z,60
2017-09-06T11:55:45.741Z,60
2017-09-06T11:56:54.593Z,60
2017-09-06T11:58:03.443Z,65
2017-09-06T11:59:12.292Z,65
2017-09-06T12:00:21.474Z,65
2017-09-06T12:01:30.325Z,80
2017-09-06T12:02:39.178Z,80
2017-09-06T12:03:48.026Z,70
2017-09-06T12:04:56.878Z,65
2017-09-06T12:06:05.730Z,60
2017-09-06T12:07:14.581Z,60
2017-09-06T12:08:23.433Z,60
2017-09-06T12:09:32.282Z,60
2017-09-06T12:10:41.133Z,60
2017-09-06T12:11:49.990Z,60
2017-09-06T12:12:58.837Z,65
2017-09-06T12:14:07.689Z,70
2017-09-06T12:15:16.541Z,70
2017-09-06T12:16:25.390Z,75
2017-09-06T12:17:34.241Z,70
2017-09-06T12:18:43.093Z,75
2017-09-06T12:19:51.944Z,80
2017-09-06T12:21:00.799Z,85
2017-09-06T12:22:09.653Z,85
2017-09-06T12:23:18.503Z,75
2017-09-06T12:24:27.353Z,60
2017-09-06T12:25:36.206Z,50
2017-09-06T12:26:45.055Z,50
2017-09-06T12:27:53.909Z,60
2017-09-06T12:29:02.761Z,65
2017-09-06T12:30:11.611Z,55
2017-09-06T12:31:20.463Z,45
2017-09-06T12:32:29.316Z,40
2017-09-06T12:33:38.165Z,40
2017-09-06T12:34:47.019Z,40
2017-09-06T12:35:55.875Z,40
2017-09-06T12:37:04.726Z,55
2017-09-06T12:38:13.576Z,75
2017-09-06T12:39:22.426Z,80
2017-09-06T12:40:31.279Z,75
2017-09-06T12:41:40.130Z,70
2017-09-06T12:42:48.986Z,60
2017-09-06T12:43:57.839Z,45
2017-09-06T12:45:06.693Z,35
2017-09-06T12:46:15.550Z,30
2017-09-06T12:47:24.400Z,30
2017-09-06T12:48:33.250Z,30
2017-09-06T12:49:42.106Z,35
2017-09-06T12:50:50.958Z,45
2017-09-06T12:51:59.808Z,70
2017-09-06T12:53:08.662Z,80
2017-09-06T12:54:17.516Z,125
2017-09-06T12:55:26.366Z,430
2017-09-06T12:56:35.223Z,645
2017-09-06T12:57:44.073Z,595
2017-09-06T12:58:52.924Z,120
2017-09-06T13:00:01.775Z,60
2017-09-06T13:01:10.623Z,30
2017-09-06T13:02:19.478Z,50
2017-09-06T13:03:28.328Z,45
2017-09-06T13:04:37.180Z,45
2017-09-06T13:05:46.033Z,35
2017-09-06T13:06:54.880Z,30
2017-09-06T13:08:03.731Z,35
2017-09-06T13:09:12.584Z,40
2017-09-06T13:10:21.432Z,35
2017-09-06T13:11:30.285Z,35
2017-09-06T13:12:39.141Z,30
2017-09-06T13:13:47.991Z,25
2017-09-06T13:14:56.844Z,25
2017-09-06T13:16:05.698Z,25
2017-09-06T13:17:14.548Z,30
2017-09-06T13:18:23.398Z,40
2017-09-06T13:19:32.251Z,60
2017-09-06T13:20:41.102Z,75
2017-09-06T13:21:49.953Z,80
2017-09-06T13:22:58.807Z,80
2017-09-06T13:24:07.662Z,70
2017-09-06T13:25:16.511Z,70
2017-09-06T13:26:25.364Z,55
2017-09-06T13:27:34.217Z,50
2017-09-06T13:28:43.070Z,40
2017-09-06T13:29:51.922Z,40
2017-09-06T13:31:00.783Z,35
2017-09-06T13:32:09.626Z,45
2017-09-06T13:33:18.482Z,40
2017-09-06T13:34:27.332Z,50
2017-09-06T13:35:36.185Z,40
2017-09-06T13:36:45.038Z,30
2017-09-06T13:37:53.893Z,30
2017-09-06T13:39:02.745Z,25
2017-09-06T13:40:11.930Z,20
2017-09-06T13:41:21.118Z,15
2017-09-06T13:42:29.970Z,15
2017-09-06T13:43:38.823Z,10
2017-09-06T13:44:47.677Z,10
2017-09-06T13:45:56.527Z,10
2017-09-06T13:47:05.381Z,10
2017-09-06T13:48:14.236Z,10
2017-09-06T13:49:23.086Z,5
2017-09-06T13:50:31.940Z,5
2017-09-06T13:51:40.794Z,10
2017-09-06T13:52:49.646Z,5
2017-09-06T13:53:58.490Z,5
2017-09-06T13:55:07.345Z,0
2017-09-06T13:56:16.197Z,0
2017-09-06T13:57:25.049Z,0
2017-09-06T13:58:33.903Z,0
2017-09-06T13:59:42.753Z,0
2017-09-06T14:00:51.603Z,0
2017-09-06T14:02:00.461Z,0
2017-09-06T14:03:09.310Z,0
2017-09-06T14:04:18.162Z,0
2017-09-06T14:05:27.013Z,0
2017-09-06T14:06:35.863Z,5
2017-09-06T14:07:44.714Z,5
2017-09-06T14:08:53.567Z,5
2017-09-06T14:10:02.417Z,5
2017-09-06T14:11:11.270Z,5
2017-09-06T14:12:20.123Z,5
2017-09-06T14:13:28.976Z,5
2017-09-06T14:14:37.843Z,5
2017-09-06T14:15:46.676Z,5
2017-09-06T14:16:55.523Z,10
2017-09-06T14:18:04.377Z,10
2017-09-06T14:19:13.232Z,10
2017-09-06T14:20:22.082Z,15
2017-09-06T14:21:30.930Z,15
2017-09-06T14:22:39.783Z,20
2017-09-06T14:23:48.630Z,25
2017-09-06T14:24:57.482Z,25
2017-09-06T14:26:06.333Z,30
2017-09-06T14:27:15.181Z,30
2017-09-06T14:28:24.031Z,30
2017-09-06T14:29:32.881Z,35
2017-09-06T14:30:41.732Z,35
2017-09-06T14:31:50.578Z,30
2017-09-06T14:32:59.430Z,30
2017-09-06T14:34:08.277Z,30
2017-09-06T14:35:17.127Z,30
2017-09-06T14:36:25.977Z,25
2017-09-06T14:37:34.827Z,25
2017-09-06T14:38:43.678Z,20
2017-09-06T14:39:52.531Z,20
2017-09-06T14:41:01.382Z,20
2017-09-06T14:42:10.230Z,20
2017-09-06T14:43:19.080Z,20
2017-09-06T14:44:28.270Z,20
2017-09-06T14:45:37.112Z,20
2017-09-06T14:46:45.966Z,20
2017-09-06T14:47:54.815Z,25
2017-09-06T14:49:03.666Z,25
2017-09-06T14:50:12.514Z,30
2017-09-06T14:51:21.367Z,35
2017-09-06T14:52:30.215Z,35
2017-09-06T14:53:39.066Z,35
2017-09-06T14:54:47.915Z,35
2017-09-06T14:55:56.770Z,35
2017-09-06T14:57:05.951Z,40
2017-09-06T14:58:14.808Z,40
2017-09-06T14:59:23.658Z,40
2017-09-06T15:00:32.505Z,30
2017-09-06T15:01:41.358Z,15
2017-09-06T15:02:50.208Z,15
2017-09-06T15:03:59.057Z,10
2017-09-06T15:05:07.909Z,10
2017-09-06T15:06:16.768Z,5
2017-09-06T15:07:25.621Z,5
2017-09-06T15:08:34.471Z,0
2017-09-06T15:09:43.328Z,5
2017-09-06T15:10:52.172Z,10
2017-09-06T15:12:01.025Z,10
2017-09-06T15:13:10.202Z,10
2017-09-06T15:14:19.056Z,15
2017-09-06T15:15:27.904Z,15
2017-09-06T15:16:36.756Z,15
2017-09-06T15:17:45.610Z,15
2017-09-06T15:18:54.458Z,15
2017-09-06T15:20:03.308Z,15
2017-09-06T15:21:12.160Z,15
2017-09-06T15:22:21.009Z,10
2017-09-06T15:23:29.866Z,10
2017-09-06T15:24:38.712Z,10
2017-09-06T15:25:47.559Z,15
2017-09-06T15:26:56.411Z,15
2017-09-06T15:28:05.261Z,20
2017-09-06T15:29:14.107Z,15
2017-09-06T15:30:22.958Z,20
2017-09-06T15:31:31.806Z,20
2017-09-06T15:32:40.655Z,15
2017-09-06T15:33:49.509Z,20
2017-09-06T15:34:58.361Z,15
2017-09-06T15:36:07.212Z,15
2017-09-06T15:37:16.063Z,20
2017-09-06T15:38:24.913Z,20
2017-09-06T15:39:33.760Z,20
2017-09-06T15:40:42.619Z,15
2017-09-06T15:41:51.469Z,15
2017-09-06T15:43:00.316Z,15
2017-09-06T15:44:09.166Z,15
2017-09-06T15:45:18.019Z,20
2017-09-06T15:46:26.864Z,25
2017-09-06T15:47:35.717Z,25
2017-09-06T15:48:44.897Z,20
2017-09-06T15:49:53.745Z,20
2017-09-06T15:51:02.591Z,20
2017-09-06T15:52:11.443Z,15
2017-09-06T15:53:20.292Z,10
2017-09-06T15:54:29.145Z,10
2017-09-06T15:55:37.999Z,10
2017-09-06T15:56:46.846Z,5
2017-09-06T15:57:55.692Z,0
2017-09-06T15:59:04.546Z,0
2017-09-06T16:00:13.394Z,0
2017-09-06T16:01:22.243Z,0
2017-09-06T16:02:31.091Z,0
2017-09-06T16:03:39.942Z,0
2017-09-06T16:04:48.790Z,0
2017-09-06T16:05:57.642Z,0
2017-09-06T16:07:06.487Z,0
2017-09-06T16:08:15.338Z,0
2017-09-06T16:09:24.189Z,0
2017-09-06T16:10:33.036Z,0
2017-09-06T16:11:41.882Z,5
2017-09-06T16:12:50.734Z,5
2017-09-06T16:13:59.583Z,5
2017-09-06T16:15:08.442Z,5
2017-09-06T16:16:17.286Z,10
2017-09-06T16:17:26.133Z,10
2017-09-06T16:18:34.982Z,10
2017-09-06T16:19:43.832Z,10
2017-09-06T16:20:52.682Z,10
2017-09-06T16:22:01.529Z,10
2017-09-06T16:23:10.379Z,5
2017-09-06T16:24:19.228Z,5
2017-09-06T16:25:28.075Z,0
2017-09-06T16:26:37.255Z,0
2017-09-06T16:27:46.106Z,5
2017-09-06T16:28:54.954Z,0
2017-09-06T16:30:03.806Z,0
2017-09-06T16:31:12.658Z,0
2017-09-06T16:32:21.828Z,0
2017-09-06T16:33:30.682Z,0
2017-09-06T16:34:39.535Z,5
2017-09-06T16:35:48.711Z,0
2017-09-06T16:36:57.561Z,0